Norcross, GA

10:37 AM EDT on August 29, 2015 (GMT -0400)
Eagle Rock Studios Atlanta | | Change Station
CLOSE
Current Station
Personal Weather Station
Location: Norcross, GA
Elevation: 1066 ft
Nearby Weather Stations

Elev 1066 ft 33.92 °N, 84.22 °W | Updated 5 minutes ago

Mostly Cloudy
Mostly Cloudy
75.7 °F
Feels Like 77 °F
N
12.5
Wind Variable Wind from ENE

Today
High -- | Low -- °F
--% Chance of Precip.
Yesterday
High -- | Low -- °F
Precip. -- in
7:08 AM 8:06 PM
Full, 100% visible
Pressure 30.18 in
Visibility 10.0 miles
Clouds Few 1000 ft
Mostly Cloudy 4600 ft
Heat Index 77 °F
Dew Point 69 °F
Humidity 80%
Rainfall 0.00 in
Snow Depth Not available.
UV 2 out of 12
Pollen 8.00 out of 12
Air Quality Not available.
Flu Activity Not available.
METAR KPDK 291353Z VRB03KT 10SM FEW010 BKN046 24/21 A3022 RMK AO2 SLP218 T02390211
Pressure 30.18 in
Visibility 10.0 miles
Clouds Few 1000 ft
Mostly Cloudy 4600 ft
Heat Index 77 °F
Dew Point 69 °F
Humidity 80%
Rainfall 0.00 in
Snow Depth Not available.
UV 2 out of 12
Pollen 8.00 out of 12
Air Quality Not available.
Flu Activity Not available.
METAR KPDK 291353Z VRB03KT 10SM FEW010 BKN046 24/21 A3022 RMK AO2 SLP218 T02390211

10-Day Weather Forecast

×

Almanac

Astronomy

Aug. 29, 2015 Rise Set
Actual Time
Civil Twilight
Nautical Twilight
Astronomical Twilight
Moon
Length of Visible Light
Length of Day
Tomorrow will be .
, % of the Moon is Illuminated

Today's Extremes

State Highs State Lows

Community

WunderPhotos

Upload Photos

1,850,706 photos uploaded!

WunderBlogs® & News

Nearby

Air Quality

  Air Quality AQ Index Pollutant
Not available.

Snow Depth

Station Depth Elevation

Earthquake Activity

City Distance Mag. Time & Date
Minimum magnitude displayed is 2.5.

Coastal Water Temperatures

Place Temperature

Stations

Nearby Weather Stations

Station Location Temp. Windchill Dew Point Humidity Wind Precip. Elev Updated Type